This is the latest recevied weather packets stored in our database for station/object KC1BRV. If no packets are shown the sender has not sent any weather packets the latest 1 day(s).
| Time | Temp. | Humidity | Pressure | Rain* | Wind** | Luminosity | Snow |
|---|---|---|---|---|---|---|---|
| 1777992906 | 22.78° C | 52% | 1011.9 hPa | 0 mm | 0 m/s | 640 W/m² | - |
| 1777992604 | 23.89° C | 51% | 1011.8 hPa | 0 mm | 0.45 m/s, 65° | 465 W/m² | - |
| 1777992302 | 22.78° C | 52% | 1011.8 hPa | 0 mm | 0 m/s | 477 W/m² | - |
| 1777991999 | 22.78° C | 51% | 1011.9 hPa | 0 mm | 1.79 m/s, 131° | 508 W/m² | - |
| 1777991697 | 22.78° C | 54% | 1012 hPa | 0 mm | 0 m/s | 426 W/m² | - |
| 1777991394 | 22.22° C | 53% | 1011.9 hPa | 0 mm | 0 m/s | 516 W/m² | - |
| 1777991091 | 22.22° C | 51% | 1012 hPa | 0 mm | 0.89 m/s, 79° | 696 W/m² | - |
| 1777990788 | 21.67° C | 54% | 1012.2 hPa | 0 mm | 0 m/s | 503 W/m² | - |
| 1777990485 | 20.56° C | 58% | 1012.1 hPa | 0 mm | 0 m/s | 612 W/m² | - |
| 1777990182 | 20° C | 58% | 1012.3 hPa | 0 mm | 0 m/s | 459 W/m² | - |
| 1777989879 | 19.44° C | 60% | 1012.2 hPa | 0 mm | 0.89 m/s, 130° | 245 W/m² | - |
| 1777989575 | 19.44° C | 60% | 1012.3 hPa | 0 mm | 1.34 m/s, 117° | 256 W/m² | - |
| 1777989272 | 19.44° C | 61% | 1012.2 hPa | 0 mm | 0.45 m/s, 81° | 175 W/m² | - |
| 1777988968 | 19.44° C | 60% | 1012.3 hPa | 0 mm | 1.34 m/s, 138° | 232 W/m² | - |
| 1777988665 | 19.44° C | 61% | 1012.3 hPa | 0 mm | 0.89 m/s, 144° | 202 W/m² | - |
| 1777988361 | 19.44° C | 62% | 1012.4 hPa | 0 mm | 0.89 m/s, 105° | 293 W/m² | - |
| 1777988059 | 18.89° C | 63% | 1012.4 hPa | 0 mm | 0.89 m/s, 68° | 123 W/m² | - |
| 1777987754 | 18.89° C | 64% | 1012.6 hPa | 0 mm | 0 m/s | 257 W/m² | - |
| 1777987452 | 17.78° C | 68% | 1012.6 hPa | 0 mm | 0 m/s | 423 W/m² | - |
| 1777987149 | 17.78° C | 67% | 1012.6 hPa | 0 mm | 0 m/s | 345 W/m² | - |
| 1777986846 | 17.78° C | 68% | 1012.6 hPa | 0 mm | 0 m/s | 108 W/m² | - |
| 1777986543 | 17.22° C | 69% | 1012.5 hPa | 0 mm | 0.89 m/s, 69° | 189 W/m² | - |
| 1777986241 | 16.67° C | 70% | 1012.5 hPa | 0 mm | 0 m/s | 186 W/m² | - |
| 1777985938 | 16.67° C | 71% | 1012.5 hPa | 0 mm | 0.45 m/s, 120° | 145 W/m² | - |
| 1777985636 | 17.22° C | 70% | 1012.5 hPa | 0 mm | 0 m/s | 152 W/m² | - |
* Rain latest hour (hover to see other rain measurements)
** Current wind speed in m/s (hover to see current wind gust speed)